createdAt,value
2018-12-19T00:02:11.239Z,31.40
2018-12-19T00:04:37.534Z,34.40
2018-12-19T00:07:03.960Z,35.63
2018-12-19T00:09:30.282Z,33.17
2018-12-19T00:11:56.560Z,36.07
2018-12-19T00:14:22.830Z,29.90
2018-12-19T00:16:49.040Z,36.57
2018-12-19T00:19:15.322Z,35.00
2018-12-19T00:21:41.630Z,34.80
2018-12-19T00:24:08.008Z,34.20
2018-12-19T00:26:34.432Z,35.40
2018-12-19T00:29:01.481Z,32.60
2018-12-19T00:31:27.912Z,30.40
2018-12-19T00:33:54.355Z,30.00
2018-12-19T00:36:20.652Z,31.70
2018-12-19T00:38:46.826Z,32.40
2018-12-19T00:41:13.133Z,27.30
2018-12-19T00:43:39.410Z,30.43
2018-12-19T00:46:05.793Z,30.17
2018-12-19T00:48:32.103Z,31.37
2018-12-19T00:50:58.416Z,32.50
2018-12-19T00:53:24.692Z,31.50
2018-12-19T00:55:50.999Z,32.60
2018-12-19T00:58:17.273Z,29.70
2018-12-19T01:00:43.603Z,32.13
2018-12-19T01:03:09.887Z,31.63
2018-12-19T01:05:36.189Z,32.60
2018-12-19T01:08:02.796Z,32.60
2018-12-19T01:10:29.335Z,30.63
2018-12-19T01:12:55.640Z,32.37
2018-12-19T01:15:21.968Z,31.67
2018-12-19T01:17:48.274Z,29.93
2018-12-19T01:20:14.593Z,30.17
2018-12-19T01:22:41.062Z,32.80
2018-12-19T01:25:07.354Z,30.63
2018-12-19T01:27:33.629Z,31.13
2018-12-19T01:29:59.954Z,29.77
2018-12-19T01:32:26.214Z,29.33
2018-12-19T01:34:52.542Z,31.57
2018-12-19T01:37:18.903Z,32.63
2018-12-19T01:39:52.786Z,33.37
2018-12-19T01:42:19.066Z,27.83
2018-12-19T01:44:45.342Z,32.00
2018-12-19T01:47:11.619Z,31.47
2018-12-19T01:49:37.894Z,30.93
2018-12-19T01:52:04.330Z,30.90
2018-12-19T01:54:30.610Z,35.50
2018-12-19T01:56:56.934Z,32.23
2018-12-19T01:59:23.117Z,32.63
2018-12-19T02:01:49.546Z,30.73
2018-12-19T02:04:16.063Z,33.43
2018-12-19T02:06:42.373Z,32.00
2018-12-19T02:09:08.550Z,31.80
2018-12-19T02:11:34.776Z,29.53
2018-12-19T02:14:01.401Z,34.03
2018-12-19T02:16:27.738Z,29.93
2018-12-19T02:18:54.036Z,28.80
2018-12-19T02:21:20.346Z,30.43
2018-12-19T02:23:46.534Z,30.67
2018-12-19T02:26:12.962Z,33.27
2018-12-19T02:28:39.238Z,32.40
2018-12-19T02:31:05.538Z,33.73
2018-12-19T02:33:31.825Z,29.47
2018-12-19T02:35:58.130Z,36.10
2018-12-19T02:38:24.409Z,29.83
2018-12-19T02:40:50.852Z,30.67
2018-12-19T02:43:17.018Z,31.20
2018-12-19T02:45:43.323Z,30.60
2018-12-19T02:48:09.603Z,31.33
2018-12-19T02:50:36.015Z,32.43
2018-12-19T02:53:02.225Z,33.80
2018-12-19T02:55:28.520Z,33.70
2018-12-19T02:57:54.795Z,36.27
2018-12-19T03:00:23.326Z,37.53
2018-12-19T03:02:49.522Z,32.60
2018-12-19T03:05:16.090Z,35.20
2018-12-19T03:07:42.388Z,34.80
2018-12-19T03:10:08.650Z,37.10
2018-12-19T03:12:34.933Z,37.80
2018-12-19T03:15:02.614Z,34.57
2018-12-19T03:17:28.818Z,35.03
2018-12-19T03:19:55.086Z,41.53
2018-12-19T03:22:21.380Z,39.13
2018-12-19T03:24:47.664Z,36.67
2018-12-19T03:27:13.961Z,39.23
2018-12-19T03:29:40.252Z,38.50
2018-12-19T03:32:06.490Z,40.00
2018-12-19T03:34:32.857Z,36.43
2018-12-19T03:36:59.160Z,41.10
2018-12-19T03:39:25.429Z,40.90
2018-12-19T03:41:51.771Z,36.47
2018-12-19T03:44:18.039Z,38.37
2018-12-19T03:46:44.338Z,38.23
2018-12-19T03:49:10.592Z,39.20
2018-12-19T03:51:36.793Z,41.30
2018-12-19T03:54:03.093Z,40.70
2018-12-19T03:56:29.395Z,40.13
2018-12-19T03:58:55.665Z,39.97
2018-12-19T04:01:21.959Z,37.73
2018-12-19T04:03:48.240Z,42.60
2018-12-19T04:06:14.961Z,42.37
2018-12-19T04:08:41.330Z,42.90
2018-12-19T04:11:07.758Z,39.40
2018-12-19T04:13:34.051Z,40.83
2018-12-19T04:16:00.349Z,40.47
2018-12-19T04:18:26.527Z,41.67
2018-12-19T04:20:52.850Z,40.17
2018-12-19T04:23:19.145Z,40.03
2018-12-19T04:25:45.591Z,42.60
2018-12-19T04:28:11.872Z,40.67
2018-12-19T04:30:38.976Z,38.20
2018-12-19T04:33:05.401Z,39.10
2018-12-19T04:35:31.814Z,42.27
2018-12-19T04:37:58.153Z,35.97
2018-12-19T04:40:24.422Z,40.27
2018-12-19T04:42:52.506Z,37.87
2018-12-19T04:45:18.742Z,38.50
2018-12-19T04:47:45.075Z,35.83
2018-12-19T04:50:11.354Z,38.10
2018-12-19T04:52:37.666Z,37.53
2018-12-19T04:55:04.045Z,39.53
2018-12-19T04:57:30.274Z,38.67
2018-12-19T04:59:56.505Z,39.13
2018-12-19T05:02:22.787Z,39.03
2018-12-19T05:04:49.098Z,38.43
2018-12-19T05:07:15.431Z,39.33
2018-12-19T05:09:41.702Z,35.87
2018-12-19T05:12:08.011Z,35.03
2018-12-19T05:14:34.636Z,39.03
2018-12-19T05:17:01.862Z,38.13
2018-12-19T05:19:28.142Z,39.77
2018-12-19T05:21:54.472Z,37.40
2018-12-19T05:24:20.803Z,37.30
2018-12-19T05:26:47.061Z,35.27
2018-12-19T05:29:13.338Z,40.10
2018-12-19T05:31:39.669Z,41.10
2018-12-19T05:34:06.024Z,36.70
2018-12-19T05:36:32.407Z,40.70
2018-12-19T05:38:58.717Z,36.50
2018-12-19T05:41:25.016Z,38.57
2018-12-19T05:43:51.247Z,38.03
2018-12-19T05:46:17.594Z,37.40
2018-12-19T05:48:43.858Z,32.63
2018-12-19T05:51:10.240Z,35.10
2018-12-19T05:53:36.416Z,32.33
2018-12-19T05:56:02.927Z,38.07
2018-12-19T05:58:29.195Z,33.83
2018-12-19T06:00:55.437Z,35.80
2018-12-19T06:03:21.714Z,37.63
2018-12-19T06:05:48.043Z,35.70
2018-12-19T06:08:14.361Z,33.60
2018-12-19T06:10:40.660Z,34.27
2018-12-19T06:13:06.882Z,34.43
2018-12-19T06:15:33.294Z,36.13
2018-12-19T06:17:59.569Z,33.43
2018-12-19T06:20:26.025Z,32.60
2018-12-19T06:22:52.329Z,31.97
2018-12-19T06:25:18.742Z,35.60
2018-12-19T06:27:45.069Z,37.00
2018-12-19T06:30:11.452Z,36.10
2018-12-19T06:32:37.773Z,30.73
2018-12-19T06:35:04.146Z,32.70
2018-12-19T06:37:30.342Z,33.60
2018-12-19T06:39:56.521Z,32.80
2018-12-19T06:42:22.836Z,33.53
2018-12-19T06:44:49.101Z,36.23
2018-12-19T06:47:15.414Z,33.77
2018-12-19T06:49:41.902Z,35.47
2018-12-19T06:52:08.275Z,33.30
2018-12-19T06:54:34.580Z,37.00
2018-12-19T06:57:01.071Z,33.87
2018-12-19T06:59:27.369Z,35.50
2018-12-19T07:01:53.685Z,37.57
2018-12-19T07:04:19.974Z,36.00
2018-12-19T07:06:46.310Z,37.07
2018-12-19T07:09:13.102Z,33.17
2018-12-19T07:11:39.329Z,35.17
2018-12-19T07:14:05.504Z,31.30
2018-12-19T07:16:31.826Z,35.37
2018-12-19T07:18:58.194Z,31.77
2018-12-19T07:21:25.909Z,33.23
2018-12-19T07:23:52.549Z,36.27
2018-12-19T07:26:18.822Z,29.27
2018-12-19T07:28:45.138Z,32.07
2018-12-19T07:31:11.476Z,33.73
2018-12-19T07:33:37.778Z,32.30
2018-12-19T07:36:04.257Z,31.67
2018-12-19T07:38:30.554Z,34.67
2018-12-19T07:40:56.729Z,31.70
2018-12-19T07:43:23.029Z,31.07
2018-12-19T07:45:49.315Z,32.27
2018-12-19T07:48:15.847Z,32.30
2018-12-19T07:50:42.139Z,33.50
2018-12-19T07:53:08.558Z,31.50
2018-12-19T07:55:35.355Z,30.37
2018-12-19T07:58:01.660Z,31.87
2018-12-19T08:00:27.938Z,29.87
2018-12-19T08:02:54.258Z,29.63
2018-12-19T08:05:25.958Z,30.90
2018-12-19T08:07:48.896Z,31.40
2018-12-19T08:10:15.194Z,29.33
2018-12-19T08:12:41.519Z,28.70
2018-12-19T08:15:08.043Z,33.93
2018-12-19T08:17:34.359Z,31.93
2018-12-19T08:20:01.729Z,28.37
2018-12-19T08:22:28.035Z,30.23
2018-12-19T08:24:54.210Z,27.93
2018-12-19T08:27:20.521Z,29.33
2018-12-19T08:29:46.698Z,31.33
2018-12-19T08:32:13.009Z,29.30
2018-12-19T08:34:39.199Z,28.90
2018-12-19T08:37:05.534Z,31.23
2018-12-19T08:39:32.116Z,30.37
2018-12-19T08:41:58.650Z,29.67
2018-12-19T08:44:24.932Z,29.00
2018-12-19T08:46:51.341Z,28.50
2018-12-19T08:49:17.623Z,29.13
2018-12-19T08:51:43.871Z,28.63
2018-12-19T08:54:10.154Z,28.53
2018-12-19T08:56:36.334Z,26.93
2018-12-19T08:59:02.745Z,29.70
2018-12-19T09:01:29.038Z,29.43
2018-12-19T09:03:55.356Z,28.27
2018-12-19T09:06:21.631Z,29.17
2018-12-19T09:08:48.067Z,27.00
2018-12-19T09:11:14.446Z,27.80
2018-12-19T09:13:40.765Z,28.47
2018-12-19T09:16:07.061Z,27.50
2018-12-19T09:18:33.359Z,29.40
2018-12-19T09:20:59.535Z,29.80
2018-12-19T09:23:25.843Z,26.97
2018-12-19T09:25:52.951Z,28.40
2018-12-19T09:28:19.483Z,28.17
2018-12-19T09:30:45.748Z,26.67
2018-12-19T09:33:12.058Z,28.60
2018-12-19T09:35:38.331Z,30.60
2018-12-19T09:38:04.549Z,29.57
2018-12-19T09:40:30.823Z,29.90
2018-12-19T09:42:57.134Z,27.57
2018-12-19T09:45:23.416Z,27.90
2018-12-19T09:47:49.719Z,26.67
2018-12-19T09:50:15.899Z,27.67
2018-12-19T09:52:42.101Z,27.70
2018-12-19T09:55:08.486Z,25.33
2018-12-19T09:57:35.106Z,27.10
2018-12-19T10:00:03.349Z,27.87
2018-12-19T10:02:29.658Z,27.03
2018-12-19T10:04:56.134Z,26.57
2018-12-19T10:07:22.457Z,27.70
2018-12-19T10:09:48.763Z,28.63
2018-12-19T10:12:15.067Z,26.30
2018-12-19T10:14:41.343Z,27.00
2018-12-19T10:17:07.547Z,24.63
2018-12-19T10:19:33.824Z,26.70
2018-12-19T10:22:00.110Z,23.83
2018-12-19T10:24:32.578Z,25.77
2018-12-19T10:26:58.908Z,24.83
2018-12-19T10:29:25.194Z,24.77
2018-12-19T10:31:51.467Z,25.23
2018-12-19T10:34:17.878Z,24.50
2018-12-19T10:36:44.207Z,23.93
2018-12-19T10:39:12.329Z,22.30
2018-12-19T10:41:39.717Z,22.93
2018-12-19T10:44:06.254Z,24.80
2018-12-19T10:46:32.951Z,24.03
2018-12-19T10:48:59.244Z,22.93
2018-12-19T10:51:25.518Z,22.73
2018-12-19T10:53:51.845Z,21.53
2018-12-19T10:56:19.393Z,22.23
2018-12-19T10:58:46.070Z,24.00
2018-12-19T11:01:12.601Z,21.50
2018-12-19T11:03:38.893Z,21.03
2018-12-19T11:06:05.163Z,23.10
2018-12-19T11:08:31.461Z,22.47
2018-12-19T11:10:57.783Z,20.73
2018-12-19T11:13:24.086Z,22.03
2018-12-19T11:15:50.364Z,22.17
2018-12-19T11:18:16.677Z,19.40
2018-12-19T11:20:42.963Z,21.07
2018-12-19T11:23:09.192Z,22.47
2018-12-19T11:25:35.453Z,20.87
2018-12-19T11:28:01.662Z,20.00
2018-12-19T11:30:28.053Z,21.60
2018-12-19T11:32:54.375Z,21.73
2018-12-19T11:35:20.764Z,25.00
2018-12-19T11:37:46.982Z,22.50
2018-12-19T11:40:13.260Z,21.60
2018-12-19T11:42:39.489Z,20.00
2018-12-19T11:45:06.001Z,24.53
2018-12-19T11:47:32.428Z,22.80
2018-12-19T11:49:58.682Z,20.70
2018-12-19T11:52:24.956Z,23.10
2018-12-19T11:54:51.373Z,20.20
2018-12-19T11:57:17.769Z,23.13
2018-12-19T11:59:44.074Z,21.50
2018-12-19T12:02:10.342Z,20.97
2018-12-19T12:04:36.542Z,23.63
2018-12-19T12:07:03.406Z,22.10
2018-12-19T12:09:29.684Z,22.97
2018-12-19T12:11:55.971Z,22.40
2018-12-19T12:14:22.292Z,18.57
2018-12-19T12:16:48.562Z,20.57
2018-12-19T12:19:14.861Z,23.13
2018-12-19T12:21:41.146Z,22.43
2018-12-19T12:24:07.477Z,19.40
2018-12-19T12:26:33.747Z,23.33
2018-12-19T12:29:00.054Z,22.50
2018-12-19T12:31:26.363Z,21.90
2018-12-19T12:33:52.683Z,24.40
2018-12-19T12:36:19.313Z,22.73
2018-12-19T12:38:45.577Z,21.37
2018-12-19T12:41:12.011Z,22.40
2018-12-19T12:43:38.311Z,22.07
2018-12-19T12:46:04.750Z,22.53
2018-12-19T12:48:31.178Z,23.00
2018-12-19T12:50:57.420Z,22.20
2018-12-19T12:53:23.768Z,21.23
2018-12-19T12:55:50.202Z,21.13
2018-12-19T12:58:16.374Z,23.80
2018-12-19T13:00:42.705Z,21.90
2018-12-19T13:03:08.990Z,24.10
2018-12-19T13:05:35.219Z,21.57
2018-12-19T13:08:01.611Z,21.03
2018-12-19T13:10:27.921Z,24.67
2018-12-19T13:12:54.182Z,23.17
2018-12-19T13:15:31.801Z,24.87
2018-12-19T13:17:58.556Z,26.20
2018-12-19T13:20:24.875Z,22.70
2018-12-19T13:22:51.067Z,23.87
2018-12-19T13:25:17.390Z,26.17
2018-12-19T13:27:43.712Z,22.57
2018-12-19T13:30:09.990Z,25.50
2018-12-19T13:32:36.382Z,26.83
2018-12-19T13:35:03.069Z,26.40
2018-12-19T13:37:29.249Z,27.23
2018-12-19T13:39:55.554Z,29.80
2018-12-19T13:42:21.873Z,27.23
2018-12-19T13:44:48.154Z,29.00
2018-12-19T13:47:14.442Z,26.50
2018-12-19T13:49:40.657Z,29.20
2018-12-19T13:52:06.927Z,27.70
2018-12-19T13:54:34.170Z,28.80
2018-12-19T13:57:00.530Z,31.60
2018-12-19T13:59:26.811Z,30.00
2018-12-19T14:01:53.114Z,29.47
2018-12-19T14:04:19.510Z,27.00
2018-12-19T14:06:45.774Z,32.43
2018-12-19T14:09:12.101Z,30.30
2018-12-19T14:11:38.379Z,31.50
2018-12-19T14:14:04.743Z,31.90
2018-12-19T14:16:31.007Z,29.57
2018-12-19T14:18:57.311Z,29.67
2018-12-19T14:21:23.579Z,29.77
2018-12-19T14:23:49.909Z,33.83
2018-12-19T14:26:16.189Z,32.50
2018-12-19T14:28:42.504Z,29.43
2018-12-19T14:31:08.818Z,32.00
2018-12-19T14:33:35.131Z,28.97
2018-12-19T14:36:01.569Z,32.40
2018-12-19T14:38:27.894Z,33.53
2018-12-19T14:40:54.245Z,29.90
2018-12-19T14:43:20.515Z,32.67
2018-12-19T14:45:46.718Z,34.83
2018-12-19T14:48:12.979Z,32.27
2018-12-19T14:50:39.390Z,34.67
2018-12-19T14:53:05.823Z,35.27
2018-12-19T14:55:32.093Z,34.87
2018-12-19T14:57:58.354Z,33.73
2018-12-19T15:00:24.917Z,36.83
2018-12-19T15:02:51.170Z,34.70
2018-12-19T15:05:17.450Z,32.57
2018-12-19T15:07:43.791Z,36.67
2018-12-19T15:10:10.067Z,37.30
2018-12-19T15:12:36.719Z,36.20
2018-12-19T15:15:05.133Z,34.17
2018-12-19T15:17:31.406Z,35.20
2018-12-19T15:19:57.909Z,37.07
2018-12-19T15:22:24.223Z,32.47
2018-12-19T15:24:50.500Z,35.07
2018-12-19T15:27:16.728Z,34.97
2018-12-19T15:29:43.044Z,36.27
2018-12-19T15:32:09.348Z,33.53
2018-12-19T15:34:35.669Z,33.80
2018-12-19T15:37:02.006Z,36.33
2018-12-19T15:39:28.328Z,37.70
2018-12-19T15:41:54.621Z,32.60
2018-12-19T15:44:21.010Z,34.43
2018-12-19T15:46:47.322Z,37.10
2018-12-19T15:49:13.646Z,32.10
2018-12-19T15:51:40.029Z,32.07
2018-12-19T15:54:06.366Z,34.87
2018-12-19T15:56:33.105Z,34.60
2018-12-19T15:58:59.436Z,35.87
2018-12-19T16:01:25.750Z,34.83
2018-12-19T16:03:52.074Z,35.90
2018-12-19T16:06:18.382Z,34.77
2018-12-19T16:08:44.695Z,30.97
2018-12-19T16:11:11.014Z,31.63
2018-12-19T16:13:37.574Z,31.63
2018-12-19T16:16:04.133Z,31.20
2018-12-19T16:18:30.460Z,34.23
2018-12-19T16:20:56.687Z,31.93
2018-12-19T16:23:22.999Z,31.37
2018-12-19T16:25:49.282Z,33.53
2018-12-19T16:28:15.643Z,47.40
2018-12-19T16:30:41.919Z,29.50
2018-12-19T16:33:08.284Z,28.90
2018-12-19T16:35:34.837Z,28.20
2018-12-19T16:38:01.315Z,31.70
2018-12-19T16:40:27.670Z,32.03
2018-12-19T16:42:53.998Z,32.20
2018-12-19T16:45:20.190Z,29.87
2018-12-19T16:47:46.418Z,30.37
2018-12-19T16:50:12.973Z,27.80
2018-12-19T16:52:39.248Z,33.00
2018-12-19T16:55:05.686Z,26.53
2018-12-19T16:57:32.197Z,31.73
2018-12-19T16:59:58.470Z,27.33
2018-12-19T17:02:24.799Z,29.23
2018-12-19T17:04:51.443Z,30.43
2018-12-19T17:07:17.717Z,28.93
2018-12-19T17:09:44.059Z,31.35
2018-12-19T17:12:10.376Z,30.00
2018-12-19T17:14:36.554Z,28.50
2018-12-19T17:17:02.874Z,32.00
2018-12-19T17:19:29.168Z,28.37
2018-12-19T17:21:55.480Z,28.43
2018-12-19T17:24:23.855Z,28.83
2018-12-19T17:26:50.135Z,31.30
2018-12-19T17:29:16.392Z,29.23
2018-12-19T17:31:42.670Z,30.93
2018-12-19T17:34:08.953Z,26.80
2018-12-19T17:36:35.268Z,32.03
2018-12-19T17:39:01.655Z,28.10
2018-12-19T17:41:27.866Z,28.17
2018-12-19T17:43:54.251Z,33.03
2018-12-19T17:46:20.549Z,29.40
2018-12-19T17:48:46.743Z,29.33
2018-12-19T17:51:13.064Z,28.50
2018-12-19T17:53:39.539Z,35.20
2018-12-19T17:56:05.874Z,30.37
2018-12-19T17:58:32.219Z,28.60
2018-12-19T18:00:58.498Z,31.00
2018-12-19T18:03:24.838Z,31.17
2018-12-19T18:05:51.114Z,31.47
2018-12-19T18:08:17.439Z,27.87
2018-12-19T18:10:43.788Z,31.77
2018-12-19T18:13:10.005Z,29.70
2018-12-19T18:15:36.333Z,31.87
2018-12-19T18:18:02.869Z,32.73
2018-12-19T18:20:29.195Z,33.53
2018-12-19T18:22:55.462Z,29.50
2018-12-19T18:25:21.809Z,33.63
2018-12-19T18:27:48.084Z,29.60
2018-12-19T18:30:14.403Z,29.00
2018-12-19T18:32:40.675Z,31.83
2018-12-19T18:35:06.905Z,29.50
2018-12-19T18:37:33.483Z,30.13
2018-12-19T18:40:00.009Z,33.00
2018-12-19T18:42:26.385Z,32.10
2018-12-19T18:44:52.766Z,31.03
2018-12-19T18:47:19.205Z,26.10
2018-12-19T18:49:45.642Z,31.27
2018-12-19T18:52:12.021Z,29.93
2018-12-19T18:54:38.529Z,31.27
2018-12-19T18:57:04.941Z,31.27
2018-12-19T18:59:31.265Z,29.93
2018-12-19T19:01:57.595Z,31.17
2018-12-19T19:04:23.939Z,28.00
2018-12-19T19:06:50.387Z,30.60
2018-12-19T19:09:16.687Z,26.97
2018-12-19T19:11:43.018Z,28.80
2018-12-19T19:14:09.378Z,32.70
2018-12-19T19:16:36.585Z,28.27
2018-12-19T19:19:03.013Z,30.70
2018-12-19T19:21:29.307Z,32.03
2018-12-19T19:23:55.585Z,30.23
2018-12-19T19:26:21.844Z,28.87
2018-12-19T19:28:48.300Z,28.73
2018-12-19T19:31:14.658Z,27.30
2018-12-19T19:33:41.049Z,30.20
2018-12-19T19:36:07.375Z,30.30
2018-12-19T19:38:33.704Z,28.33
2018-12-19T19:40:59.889Z,29.90
2018-12-19T19:43:26.620Z,30.37
2018-12-19T19:45:53.258Z,27.97
2018-12-19T19:48:19.590Z,30.83
2018-12-19T19:50:45.902Z,26.57
2018-12-19T19:53:12.460Z,30.03
2018-12-19T19:55:38.774Z,32.40
2018-12-19T19:58:05.096Z,29.40
2018-12-19T20:00:31.396Z,27.30
2018-12-19T20:02:58.056Z,31.47
2018-12-19T20:05:24.288Z,28.93
2018-12-19T20:07:50.593Z,29.10
2018-12-19T20:10:16.987Z,30.40
2018-12-19T20:12:43.256Z,30.53
2018-12-19T20:15:09.770Z,29.60
2018-12-19T20:17:36.225Z,25.80
2018-12-19T20:20:03.121Z,27.40
2018-12-19T20:22:29.473Z,27.83
2018-12-19T20:24:55.735Z,27.83
2018-12-19T20:27:21.984Z,29.23
2018-12-19T20:29:48.266Z,26.70
2018-12-19T20:32:14.644Z,27.77
2018-12-19T20:34:41.085Z,30.57
2018-12-19T20:37:07.397Z,28.80
2018-12-19T20:39:33.735Z,27.60
2018-12-19T20:42:00.070Z,29.13
2018-12-19T20:44:26.250Z,29.20
2018-12-19T20:46:52.593Z,27.73
2018-12-19T20:49:18.893Z,33.47
2018-12-19T20:51:45.223Z,28.47
2018-12-19T20:54:11.642Z,28.80
2018-12-19T20:56:37.969Z,30.93
2018-12-19T20:59:04.315Z,29.90
2018-12-19T21:01:30.585Z,30.70
2018-12-19T21:03:56.820Z,28.67
2018-12-19T21:06:23.103Z,31.13
2018-12-19T21:08:49.316Z,27.60
2018-12-19T21:11:16.074Z,30.10
2018-12-19T21:13:46.657Z,26.50
2018-12-19T21:16:10.772Z,28.50
2018-12-19T21:18:42.299Z,28.30
2018-12-19T21:21:08.610Z,29.03
2018-12-19T21:23:35.110Z,30.03
2018-12-19T21:26:01.434Z,27.57
2018-12-19T21:28:27.839Z,32.33
2018-12-19T21:30:54.157Z,31.70
2018-12-19T21:33:20.438Z,29.93
2018-12-19T21:35:46.764Z,28.60
2018-12-19T21:38:13.204Z,29.23
2018-12-19T21:40:39.523Z,28.80
2018-12-19T21:43:05.910Z,31.63
2018-12-19T21:45:32.546Z,29.00
2018-12-19T21:47:58.956Z,28.10
2018-12-19T21:50:25.418Z,30.63
2018-12-19T21:52:51.727Z,30.23
2018-12-19T21:55:17.953Z,28.73
2018-12-19T21:57:44.303Z,29.93
2018-12-19T22:00:12.774Z,25.50
2018-12-19T22:02:39.403Z,27.90
2018-12-19T22:05:05.837Z,27.60
2018-12-19T22:07:32.274Z,33.20
2018-12-19T22:09:58.656Z,28.73
2018-12-19T22:12:25.140Z,28.67
2018-12-19T22:14:51.530Z,27.30
2018-12-19T22:17:23.873Z,27.60
2018-12-19T22:19:50.345Z,29.13
2018-12-19T22:22:16.735Z,29.20
2018-12-19T22:24:43.117Z,25.93
2018-12-19T22:27:09.563Z,31.33
2018-12-19T22:29:35.984Z,29.40
2018-12-19T22:32:02.402Z,28.90
2018-12-19T22:34:28.805Z,30.23
2018-12-19T22:36:55.036Z,28.50
2018-12-19T22:39:21.477Z,30.67
2018-12-19T22:41:47.857Z,26.87
2018-12-19T22:44:14.392Z,29.80
2018-12-19T22:46:40.728Z,29.40
2018-12-19T22:49:06.924Z,28.50
2018-12-19T22:51:33.243Z,28.70
2018-12-19T22:53:59.519Z,29.77
2018-12-19T22:56:25.800Z,32.07
2018-12-19T22:58:52.144Z,29.00
2018-12-19T23:01:24.732Z,28.30
2018-12-19T23:03:57.232Z,29.73
2018-12-19T23:06:23.611Z,27.60
2018-12-19T23:08:50.017Z,28.57
2018-12-19T23:11:16.351Z,29.57
2018-12-19T23:13:42.781Z,31.00
2018-12-19T23:16:09.081Z,30.20
2018-12-19T23:18:35.793Z,33.50
2018-12-19T23:21:02.132Z,30.83
2018-12-19T23:23:28.509Z,29.53
2018-12-19T23:25:54.874Z,29.80
2018-12-19T23:28:21.365Z,32.07
2018-12-19T23:30:47.812Z,35.20
2018-12-19T23:33:15.374Z,28.63
2018-12-19T23:35:41.827Z,32.27
2018-12-19T23:38:08.298Z,29.20
2018-12-19T23:40:34.674Z,32.37
2018-12-19T23:43:01.107Z,32.53
2018-12-19T23:45:27.404Z,31.17
2018-12-19T23:47:53.727Z,29.93
2018-12-19T23:50:20.192Z,34.63
2018-12-19T23:52:46.372Z,33.10
2018-12-19T23:55:13.004Z,30.23
2018-12-19T23:57:39.547Z,29.67
